sensor_id;sensor_type;location;lat;lon;timestamp;P1;durP1;ratioP1;P2;durP2;ratioP2
65896;SDS011;52677;50.898;10.854;2023-03-01T00:01:59;22.50;;;12.65;;
65896;SDS011;52677;50.898;10.854;2023-03-01T00:04:00;27.05;;;14.48;;
65896;SDS011;52677;50.898;10.854;2023-03-01T00:06:00;29.63;;;14.68;;
65896;SDS011;52677;50.898;10.854;2023-03-01T00:08:01;29.20;;;13.70;;
65896;SDS011;52677;50.898;10.854;2023-03-01T00:10:02;27.42;;;14.18;;
65896;SDS011;52677;50.898;10.854;2023-03-01T00:12:02;26.45;;;13.40;;
65896;SDS011;52677;50.898;10.854;2023-03-01T00:14:03;25.83;;;13.23;;
65896;SDS011;52677;50.898;10.854;2023-03-01T00:16:05;27.00;;;14.45;;
65896;SDS011;52677;50.898;10.854;2023-03-01T00:18:09;28.70;;;13.98;;
65896;SDS011;52677;50.898;10.854;2023-03-01T00:20:10;25.08;;;12.88;;
65896;SDS011;52677;50.898;10.854;2023-03-01T00:22:11;23.08;;;12.93;;
65896;SDS011;52677;50.898;10.854;2023-03-01T00:24:11;27.35;;;13.43;;
65896;SDS011;52677;50.898;10.854;2023-03-01T00:26:12;23.35;;;12.95;;
65896;SDS011;52677;50.898;10.854;2023-03-01T00:28:13;26.45;;;13.93;;
65896;SDS011;52677;50.898;10.854;2023-03-01T00:30:14;30.15;;;13.15;;
65896;SDS011;52677;50.898;10.854;2023-03-01T00:32:14;28.13;;;13.75;;
65896;SDS011;52677;50.898;10.854;2023-03-01T00:34:15;28.45;;;13.98;;
65896;SDS011;52677;50.898;10.854;2023-03-01T00:36:15;23.35;;;13.45;;
65896;SDS011;52677;50.898;10.854;2023-03-01T00:38:15;30.23;;;15.27;;
65896;SDS011;52677;50.898;10.854;2023-03-01T00:40:16;24.25;;;12.82;;
65896;SDS011;52677;50.898;10.854;2023-03-01T00:42:16;25.83;;;12.32;;
65896;SDS011;52677;50.898;10.854;2023-03-01T00:44:17;31.83;;;14.20;;
65896;SDS011;52677;50.898;10.854;2023-03-01T00:46:18;35.13;;;15.13;;
65896;SDS011;52677;50.898;10.854;2023-03-01T00:48:20;28.40;;;14.98;;
65896;SDS011;52677;50.898;10.854;2023-03-01T00:50:21;28.30;;;14.95;;
65896;SDS011;52677;50.898;10.854;2023-03-01T00:52:21;25.08;;;13.27;;
65896;SDS011;52677;50.898;10.854;2023-03-01T00:54:21;25.35;;;13.70;;
65896;SDS011;52677;50.898;10.854;2023-03-01T00:56:22;24.30;;;12.82;;
65896;SDS011;52677;50.898;10.854;2023-03-01T00:58:22;24.48;;;13.20;;
65896;SDS011;52677;50.898;10.854;2023-03-01T01:00:23;24.33;;;13.85;;
65896;SDS011;52677;50.898;10.854;2023-03-01T01:02:23;27.75;;;14.60;;
65896;SDS011;52677;50.898;10.854;2023-03-01T01:04:23;27.88;;;14.38;;
65896;SDS011;52677;50.898;10.854;2023-03-01T01:06:25;28.98;;;13.80;;
65896;SDS011;52677;50.898;10.854;2023-03-01T01:08:27;27.55;;;14.30;;
65896;SDS011;52677;50.898;10.854;2023-03-01T01:10:27;23.42;;;13.25;;
65896;SDS011;52677;50.898;10.854;2023-03-01T01:12:28;29.80;;;14.38;;
65896;SDS011;52677;50.898;10.854;2023-03-01T01:14:28;28.42;;;14.45;;
65896;SDS011;52677;50.898;10.854;2023-03-01T01:16:29;28.40;;;14.50;;
65896;SDS011;52677;50.898;10.854;2023-03-01T01:18:29;30.83;;;13.48;;
65896;SDS011;52677;50.898;10.854;2023-03-01T01:20:30;29.73;;;13.68;;
65896;SDS011;52677;50.898;10.854;2023-03-01T01:22:30;30.77;;;14.32;;
65896;SDS011;52677;50.898;10.854;2023-03-01T01:24:30;28.05;;;13.63;;
65896;SDS011;52677;50.898;10.854;2023-03-01T01:26:31;27.77;;;13.95;;
65896;SDS011;52677;50.898;10.854;2023-03-01T01:28:34;31.13;;;13.52;;
65896;SDS011;52677;50.898;10.854;2023-03-01T01:30:34;31.05;;;13.18;;
65896;SDS011;52677;50.898;10.854;2023-03-01T01:32:34;33.42;;;15.50;;
65896;SDS011;52677;50.898;10.854;2023-03-01T01:34:35;29.38;;;14.30;;
65896;SDS011;52677;50.898;10.854;2023-03-01T01:36:35;28.25;;;14.50;;
65896;SDS011;52677;50.898;10.854;2023-03-01T01:38:36;26.27;;;13.88;;
65896;SDS011;52677;50.898;10.854;2023-03-01T01:40:44;31.92;;;14.73;;
65896;SDS011;52677;50.898;10.854;2023-03-01T01:42:46;29.13;;;14.18;;
65896;SDS011;52677;50.898;10.854;2023-03-01T01:44:46;26.38;;;13.73;;
65896;SDS011;52677;50.898;10.854;2023-03-01T01:46:48;26.38;;;12.95;;
65896;SDS011;52677;50.898;10.854;2023-03-01T01:49:05;31.15;;;13.55;;
65896;SDS011;52677;50.898;10.854;2023-03-01T01:51:15;26.77;;;14.32;;
65896;SDS011;52677;50.898;10.854;2023-03-01T01:53:19;29.20;;;13.52;;
65896;SDS011;52677;50.898;10.854;2023-03-01T01:55:25;26.13;;;14.27;;
65896;SDS011;52677;50.898;10.854;2023-03-01T01:57:29;27.67;;;13.80;;
65896;SDS011;52677;50.898;10.854;2023-03-01T01:59:35;29.50;;;14.15;;
65896;SDS011;52677;50.898;10.854;2023-03-01T02:01:37;25.58;;;14.63;;
65896;SDS011;52677;50.898;10.854;2023-03-01T02:03:38;28.67;;;13.65;;
65896;SDS011;52677;50.898;10.854;2023-03-01T02:07:45;26.70;;;13.88;;
65896;SDS011;52677;50.898;10.854;2023-03-01T02:09:47;28.38;;;14.60;;
65896;SDS011;52677;50.898;10.854;2023-03-01T02:11:50;27.00;;;14.30;;
65896;SDS011;52677;50.898;10.854;2023-03-01T02:13:51;29.63;;;14.40;;
65896;SDS011;52677;50.898;10.854;2023-03-01T02:15:53;30.45;;;14.80;;
65896;SDS011;52677;50.898;10.854;2023-03-01T02:17:53;29.92;;;15.50;;
65896;SDS011;52677;50.898;10.854;2023-03-01T02:22:24;26.77;;;14.57;;
65896;SDS011;52677;50.898;10.854;2023-03-01T02:24:34;28.48;;;13.40;;
65896;SDS011;52677;50.898;10.854;2023-03-01T02:26:45;26.23;;;13.48;;
65896;SDS011;52677;50.898;10.854;2023-03-01T02:28:50;24.75;;;12.75;;
65896;SDS011;52677;50.898;10.854;2023-03-01T02:30:50;31.98;;;14.57;;
65896;SDS011;52677;50.898;10.854;2023-03-01T02:33:09;28.25;;;13.85;;
65896;SDS011;52677;50.898;10.854;2023-03-01T02:35:12;29.77;;;14.07;;
65896;SDS011;52677;50.898;10.854;2023-03-01T02:37:14;28.20;;;14.05;;
65896;SDS011;52677;50.898;10.854;2023-03-01T02:39:25;32.83;;;14.70;;
65896;SDS011;52677;50.898;10.854;2023-03-01T02:41:31;27.00;;;13.63;;
65896;SDS011;52677;50.898;10.854;2023-03-01T02:43:35;29.58;;;13.82;;
65896;SDS011;52677;50.898;10.854;2023-03-01T02:45:36;24.67;;;12.80;;
65896;SDS011;52677;50.898;10.854;2023-03-01T02:47:36;28.27;;;14.57;;
65896;SDS011;52677;50.898;10.854;2023-03-01T02:49:37;27.80;;;14.05;;
65896;SDS011;52677;50.898;10.854;2023-03-01T02:54:23;26.20;;;13.35;;
65896;SDS011;52677;50.898;10.854;2023-03-01T02:56:28;24.13;;;12.18;;
65896;SDS011;52677;50.898;10.854;2023-03-01T02:58:29;26.15;;;12.68;;
65896;SDS011;52677;50.898;10.854;2023-03-01T03:00:34;24.60;;;12.13;;
65896;SDS011;52677;50.898;10.854;2023-03-01T03:02:39;25.92;;;12.88;;
65896;SDS011;52677;50.898;10.854;2023-03-01T03:04:40;31.10;;;13.20;;
65896;SDS011;52677;50.898;10.854;2023-03-01T03:06:40;29.27;;;14.63;;
65896;SDS011;52677;50.898;10.854;2023-03-01T03:08:41;25.13;;;13.05;;
65896;SDS011;52677;50.898;10.854;2023-03-01T03:10:41;26.27;;;13.80;;
65896;SDS011;52677;50.898;10.854;2023-03-01T03:12:43;26.43;;;13.57;;
65896;SDS011;52677;50.898;10.854;2023-03-01T03:14:43;30.10;;;12.73;;
65896;SDS011;52677;50.898;10.854;2023-03-01T03:16:45;26.92;;;13.00;;
65896;SDS011;52677;50.898;10.854;2023-03-01T03:18:47;27.05;;;13.20;;
65896;SDS011;52677;50.898;10.854;2023-03-01T03:20:48;29.98;;;14.80;;
65896;SDS011;52677;50.898;10.854;2023-03-01T03:22:53;25.92;;;13.02;;
65896;SDS011;52677;50.898;10.854;2023-03-01T03:24:55;33.33;;;12.52;;
65896;SDS011;52677;50.898;10.854;2023-03-01T03:26:56;30.50;;;13.05;;
65896;SDS011;52677;50.898;10.854;2023-03-01T03:28:56;28.02;;;13.30;;
65896;SDS011;52677;50.898;10.854;2023-03-01T03:30:57;29.67;;;13.27;;
65896;SDS011;52677;50.898;10.854;2023-03-01T03:32:58;27.52;;;13.75;;
65896;SDS011;52677;50.898;10.854;2023-03-01T03:34:59;27.20;;;13.82;;
65896;SDS011;52677;50.898;10.854;2023-03-01T03:37:00;33.85;;;13.05;;
65896;SDS011;52677;50.898;10.854;2023-03-01T03:39:00;26.83;;;12.73;;
65896;SDS011;52677;50.898;10.854;2023-03-01T03:41:05;32.40;;;14.48;;
65896;SDS011;52677;50.898;10.854;2023-03-01T03:43:08;29.65;;;14.32;;
65896;SDS011;52677;50.898;10.854;2023-03-01T03:45:10;29.17;;;13.52;;
65896;SDS011;52677;50.898;10.854;2023-03-01T03:47:11;31.98;;;13.90;;
65896;SDS011;52677;50.898;10.854;2023-03-01T03:49:11;28.83;;;13.88;;
65896;SDS011;52677;50.898;10.854;2023-03-01T03:51:12;32.97;;;13.93;;
65896;SDS011;52677;50.898;10.854;2023-03-01T03:53:14;29.90;;;14.32;;
65896;SDS011;52677;50.898;10.854;2023-03-01T03:55:14;28.15;;;12.65;;
65896;SDS011;52677;50.898;10.854;2023-03-01T03:57:19;26.50;;;13.30;;
65896;SDS011;52677;50.898;10.854;2023-03-01T03:59:21;24.67;;;13.27;;
65896;SDS011;52677;50.898;10.854;2023-03-01T04:01:21;36.38;;;14.40;;
65896;SDS011;52677;50.898;10.854;2023-03-01T04:03:21;32.78;;;13.13;;
65896;SDS011;52677;50.898;10.854;2023-03-01T04:05:23;32.23;;;13.27;;
65896;SDS011;52677;50.898;10.854;2023-03-01T04:07:23;32.20;;;13.55;;
65896;SDS011;52677;50.898;10.854;2023-03-01T04:09:24;29.38;;;13.55;;
65896;SDS011;52677;50.898;10.854;2023-03-01T04:11:24;30.85;;;14.80;;
65896;SDS011;52677;50.898;10.854;2023-03-01T04:13:27;24.27;;;12.65;;
65896;SDS011;52677;50.898;10.854;2023-03-01T04:15:28;30.30;;;13.70;;
65896;SDS011;52677;50.898;10.854;2023-03-01T04:17:28;31.10;;;14.20;;
65896;SDS011;52677;50.898;10.854;2023-03-01T04:19:29;26.20;;;13.50;;
65896;SDS011;52677;50.898;10.854;2023-03-01T04:21:29;30.10;;;13.20;;
65896;SDS011;52677;50.898;10.854;2023-03-01T04:23:30;29.02;;;13.57;;
65896;SDS011;52677;50.898;10.854;2023-03-01T04:25:30;33.45;;;14.60;;
65896;SDS011;52677;50.898;10.854;2023-03-01T04:27:30;28.98;;;14.43;;
65896;SDS011;52677;50.898;10.854;2023-03-01T04:29:30;28.75;;;13.77;;
65896;SDS011;52677;50.898;10.854;2023-03-01T04:31:31;31.77;;;14.10;;
65896;SDS011;52677;50.898;10.854;2023-03-01T04:33:31;28.30;;;12.90;;
65896;SDS011;52677;50.898;10.854;2023-03-01T04:35:32;29.38;;;14.13;;
65896;SDS011;52677;50.898;10.854;2023-03-01T04:39:34;24.50;;;12.52;;
65896;SDS011;52677;50.898;10.854;2023-03-01T04:41:45;31.42;;;12.60;;
65896;SDS011;52677;50.898;10.854;2023-03-01T04:43:45;27.05;;;13.18;;
65896;SDS011;52677;50.898;10.854;2023-03-01T04:45:46;28.52;;;12.48;;
65896;SDS011;52677;50.898;10.854;2023-03-01T04:47:46;26.40;;;12.32;;
65896;SDS011;52677;50.898;10.854;2023-03-01T04:49:47;30.55;;;13.57;;
65896;SDS011;52677;50.898;10.854;2023-03-01T04:51:47;23.13;;;13.25;;
65896;SDS011;52677;50.898;10.854;2023-03-01T04:53:48;31.10;;;14.48;;
65896;SDS011;52677;50.898;10.854;2023-03-01T04:55:48;29.85;;;14.40;;
65896;SDS011;52677;50.898;10.854;2023-03-01T04:57:49;25.92;;;12.73;;
65896;SDS011;52677;50.898;10.854;2023-03-01T04:59:49;31.98;;;14.30;;
65896;SDS011;52677;50.898;10.854;2023-03-01T05:01:53;28.98;;;14.57;;
65896;SDS011;52677;50.898;10.854;2023-03-01T05:03:55;31.65;;;13.80;;
65896;SDS011;52677;50.898;10.854;2023-03-01T05:05:58;39.28;;;15.60;;
65896;SDS011;52677;50.898;10.854;2023-03-01T05:08:00;37.88;;;15.23;;
65896;SDS011;52677;50.898;10.854;2023-03-01T05:10:02;35.17;;;15.20;;
65896;SDS011;52677;50.898;10.854;2023-03-01T05:12:03;33.20;;;14.85;;
65896;SDS011;52677;50.898;10.854;2023-03-01T05:14:04;37.00;;;14.88;;
65896;SDS011;52677;50.898;10.854;2023-03-01T05:16:05;38.55;;;15.70;;
65896;SDS011;52677;50.898;10.854;2023-03-01T05:18:10;33.95;;;16.92;;
65896;SDS011;52677;50.898;10.854;2023-03-01T05:20:11;31.58;;;15.57;;
65896;SDS011;52677;50.898;10.854;2023-03-01T05:22:11;34.95;;;16.35;;
65896;SDS011;52677;50.898;10.854;2023-03-01T05:24:12;47.67;;;17.45;;
65896;SDS011;52677;50.898;10.854;2023-03-01T05:26:12;40.45;;;16.23;;
65896;SDS011;52677;50.898;10.854;2023-03-01T05:28:14;32.58;;;14.85;;
65896;SDS011;52677;50.898;10.854;2023-03-01T05:30:15;32.38;;;14.60;;
65896;SDS011;52677;50.898;10.854;2023-03-01T05:32:16;31.73;;;15.10;;
65896;SDS011;52677;50.898;10.854;2023-03-01T05:34:16;33.72;;;14.80;;
65896;SDS011;52677;50.898;10.854;2023-03-01T05:36:16;36.03;;;15.10;;
65896;SDS011;52677;50.898;10.854;2023-03-01T05:38:18;33.67;;;15.00;;
65896;SDS011;52677;50.898;10.854;2023-03-01T05:40:19;34.42;;;14.90;;
65896;SDS011;52677;50.898;10.854;2023-03-01T05:42:22;31.05;;;14.65;;
65896;SDS011;52677;50.898;10.854;2023-03-01T05:44:22;28.33;;;13.15;;
65896;SDS011;52677;50.898;10.854;2023-03-01T05:46:24;32.75;;;14.25;;
65896;SDS011;52677;50.898;10.854;2023-03-01T05:48:24;28.80;;;14.10;;
65896;SDS011;52677;50.898;10.854;2023-03-01T05:50:25;32.28;;;13.90;;
65896;SDS011;52677;50.898;10.854;2023-03-01T05:52:28;33.80;;;14.40;;
65896;SDS011;52677;50.898;10.854;2023-03-01T05:54:28;28.35;;;13.63;;
65896;SDS011;52677;50.898;10.854;2023-03-01T05:56:28;30.90;;;12.70;;
65896;SDS011;52677;50.898;10.854;2023-03-01T05:58:29;29.08;;;12.45;;
65896;SDS011;52677;50.898;10.854;2023-03-01T06:00:30;36.47;;;15.65;;
65896;SDS011;52677;50.898;10.854;2023-03-01T06:02:31;29.90;;;12.98;;
65896;SDS011;52677;50.898;10.854;2023-03-01T06:04:31;30.27;;;13.85;;
65896;SDS011;52677;50.898;10.854;2023-03-01T06:06:35;32.63;;;13.52;;
65896;SDS011;52677;50.898;10.854;2023-03-01T06:08:39;28.77;;;13.50;;
65896;SDS011;52677;50.898;10.854;2023-03-01T06:10:39;35.85;;;15.43;;
65896;SDS011;52677;50.898;10.854;2023-03-01T06:12:41;28.15;;;14.00;;
65896;SDS011;52677;50.898;10.854;2023-03-01T06:14:42;27.53;;;12.83;;
65896;SDS011;52677;50.898;10.854;2023-03-01T06:16:42;27.27;;;14.02;;
65896;SDS011;52677;50.898;10.854;2023-03-01T06:18:42;32.72;;;14.52;;
65896;SDS011;52677;50.898;10.854;2023-03-01T06:20:43;30.45;;;13.35;;
65896;SDS011;52677;50.898;10.854;2023-03-01T06:22:43;27.10;;;14.40;;
65896;SDS011;52677;50.898;10.854;2023-03-01T06:24:44;29.52;;;14.13;;
65896;SDS011;52677;50.898;10.854;2023-03-01T06:26:45;32.63;;;12.77;;
65896;SDS011;52677;50.898;10.854;2023-03-01T06:28:45;27.73;;;13.82;;
65896;SDS011;52677;50.898;10.854;2023-03-01T06:30:46;33.25;;;14.38;;
65896;SDS011;52677;50.898;10.854;2023-03-01T06:32:46;30.55;;;14.63;;
65896;SDS011;52677;50.898;10.854;2023-03-01T06:34:47;30.92;;;15.70;;
65896;SDS011;52677;50.898;10.854;2023-03-01T06:36:47;29.13;;;13.23;;
65896;SDS011;52677;50.898;10.854;2023-03-01T06:38:47;27.38;;;12.40;;
65896;SDS011;52677;50.898;10.854;2023-03-01T06:40:51;34.55;;;14.75;;
65896;SDS011;52677;50.898;10.854;2023-03-01T06:42:53;31.88;;;14.23;;
65896;SDS011;52677;50.898;10.854;2023-03-01T06:44:54;34.50;;;15.20;;
65896;SDS011;52677;50.898;10.854;2023-03-01T06:46:54;35.10;;;15.35;;
65896;SDS011;52677;50.898;10.854;2023-03-01T06:48:55;35.28;;;15.77;;
65896;SDS011;52677;50.898;10.854;2023-03-01T06:50:57;43.53;;;17.05;;
65896;SDS011;52677;50.898;10.854;2023-03-01T06:52:58;29.35;;;16.48;;
65896;SDS011;52677;50.898;10.854;2023-03-01T06:54:59;32.97;;;15.18;;
65896;SDS011;52677;50.898;10.854;2023-03-01T06:57:00;31.95;;;15.13;;
65896;SDS011;52677;50.898;10.854;2023-03-01T06:59:00;37.05;;;16.45;;
65896;SDS011;52677;50.898;10.854;2023-03-01T07:01:04;34.72;;;16.67;;
65896;SDS011;52677;50.898;10.854;2023-03-01T07:03:05;35.88;;;16.63;;
65896;SDS011;52677;50.898;10.854;2023-03-01T07:05:06;27.20;;;14.35;;
65896;SDS011;52677;50.898;10.854;2023-03-01T07:07:07;34.80;;;15.55;;
65896;SDS011;52677;50.898;10.854;2023-03-01T07:09:07;33.00;;;16.67;;
65896;SDS011;52677;50.898;10.854;2023-03-01T07:11:07;35.83;;;15.35;;
65896;SDS011;52677;50.898;10.854;2023-03-01T07:13:08;32.70;;;15.68;;
65896;SDS011;52677;50.898;10.854;2023-03-01T07:15:08;29.10;;;14.13;;
65896;SDS011;52677;50.898;10.854;2023-03-01T07:17:10;36.35;;;16.73;;
65896;SDS011;52677;50.898;10.854;2023-03-01T07:19:10;42.50;;;17.83;;
65896;SDS011;52677;50.898;10.854;2023-03-01T07:21:11;32.42;;;15.68;;
65896;SDS011;52677;50.898;10.854;2023-03-01T07:23:13;34.28;;;16.88;;
65896;SDS011;52677;50.898;10.854;2023-03-01T07:25:13;38.67;;;15.73;;
65896;SDS011;52677;50.898;10.854;2023-03-01T07:27:13;42.70;;;18.55;;
65896;SDS011;52677;50.898;10.854;2023-03-01T07:29:14;34.10;;;17.40;;
65896;SDS011;52677;50.898;10.854;2023-03-01T07:31:14;30.00;;;15.07;;
65896;SDS011;52677;50.898;10.854;2023-03-01T07:33:15;44.03;;;16.25;;
65896;SDS011;52677;50.898;10.854;2023-03-01T07:35:15;39.80;;;16.30;;
65896;SDS011;52677;50.898;10.854;2023-03-01T07:37:15;34.03;;;16.27;;
65896;SDS011;52677;50.898;10.854;2023-03-01T07:39:16;36.47;;;17.10;;
65896;SDS011;52677;50.898;10.854;2023-03-01T07:41:16;34.35;;;15.77;;
65896;SDS011;52677;50.898;10.854;2023-03-01T07:43:17;39.70;;;18.30;;
65896;SDS011;52677;50.898;10.854;2023-03-01T07:45:17;41.13;;;19.98;;
65896;SDS011;52677;50.898;10.854;2023-03-01T07:47:18;43.55;;;19.30;;
65896;SDS011;52677;50.898;10.854;2023-03-01T07:49:18;34.97;;;16.92;;
65896;SDS011;52677;50.898;10.854;2023-03-01T07:51:18;34.50;;;16.83;;
65896;SDS011;52677;50.898;10.854;2023-03-01T07:53:19;38.20;;;18.15;;
65896;SDS011;52677;50.898;10.854;2023-03-01T07:55:19;35.13;;;17.98;;
65896;SDS011;52677;50.898;10.854;2023-03-01T07:57:20;39.08;;;18.67;;
65896;SDS011;52677;50.898;10.854;2023-03-01T07:59:20;36.33;;;17.23;;
65896;SDS011;52677;50.898;10.854;2023-03-01T08:01:21;36.90;;;17.27;;
65896;SDS011;52677;50.898;10.854;2023-03-01T08:03:21;35.42;;;16.48;;
65896;SDS011;52677;50.898;10.854;2023-03-01T08:05:22;44.70;;;18.33;;
65896;SDS011;52677;50.898;10.854;2023-03-01T08:07:22;41.90;;;19.33;;
65896;SDS011;52677;50.898;10.854;2023-03-01T08:09:22;37.50;;;17.73;;
65896;SDS011;52677;50.898;10.854;2023-03-01T08:11:23;37.60;;;18.30;;
65896;SDS011;52677;50.898;10.854;2023-03-01T08:13:23;33.33;;;16.55;;
65896;SDS011;52677;50.898;10.854;2023-03-01T08:15:24;36.53;;;17.70;;
65896;SDS011;52677;50.898;10.854;2023-03-01T08:17:25;38.42;;;18.02;;
65896;SDS011;52677;50.898;10.854;2023-03-01T08:19:25;34.13;;;17.95;;
65896;SDS011;52677;50.898;10.854;2023-03-01T08:21:25;45.50;;;20.80;;
65896;SDS011;52677;50.898;10.854;2023-03-01T08:23:26;39.38;;;18.83;;
65896;SDS011;52677;50.898;10.854;2023-03-01T08:25:26;36.58;;;17.42;;
65896;SDS011;52677;50.898;10.854;2023-03-01T08:27:26;37.25;;;18.00;;
65896;SDS011;52677;50.898;10.854;2023-03-01T08:29:27;32.15;;;17.02;;
65896;SDS011;52677;50.898;10.854;2023-03-01T08:31:45;38.15;;;17.63;;
65896;SDS011;52677;50.898;10.854;2023-03-01T08:33:46;31.33;;;15.95;;
65896;SDS011;52677;50.898;10.854;2023-03-01T08:36:04;36.72;;;18.63;;
65896;SDS011;52677;50.898;10.854;2023-03-01T08:38:06;31.27;;;16.55;;
65896;SDS011;52677;50.898;10.854;2023-03-01T08:40:07;29.35;;;15.65;;
65896;SDS011;52677;50.898;10.854;2023-03-01T08:42:09;32.75;;;16.67;;
65896;SDS011;52677;50.898;10.854;2023-03-01T08:44:11;35.47;;;16.52;;
65896;SDS011;52677;50.898;10.854;2023-03-01T08:48:13;33.38;;;15.07;;
65896;SDS011;52677;50.898;10.854;2023-03-01T08:50:13;33.70;;;16.73;;
65896;SDS011;52677;50.898;10.854;2023-03-01T08:52:14;29.95;;;15.90;;
65896;SDS011;52677;50.898;10.854;2023-03-01T08:54:18;31.63;;;16.85;;
65896;SDS011;52677;50.898;10.854;2023-03-01T08:56:20;30.30;;;15.88;;
65896;SDS011;52677;50.898;10.854;2023-03-01T08:58:20;33.13;;;15.63;;
65896;SDS011;52677;50.898;10.854;2023-03-01T09:00:21;27.63;;;16.38;;
65896;SDS011;52677;50.898;10.854;2023-03-01T09:02:22;28.52;;;15.57;;
65896;SDS011;52677;50.898;10.854;2023-03-01T09:04:22;37.92;;;17.13;;
65896;SDS011;52677;50.898;10.854;2023-03-01T09:06:22;32.53;;;17.25;;
65896;SDS011;52677;50.898;10.854;2023-03-01T09:08:23;27.75;;;15.38;;
65896;SDS011;52677;50.898;10.854;2023-03-01T09:10:23;29.30;;;15.88;;
65896;SDS011;52677;50.898;10.854;2023-03-01T09:12:24;31.23;;;15.05;;
65896;SDS011;52677;50.898;10.854;2023-03-01T09:14:25;34.67;;;15.77;;
65896;SDS011;52677;50.898;10.854;2023-03-01T09:16:25;29.20;;;15.02;;
65896;SDS011;52677;50.898;10.854;2023-03-01T09:18:25;30.98;;;16.08;;
65896;SDS011;52677;50.898;10.854;2023-03-01T09:20:26;28.75;;;16.42;;
65896;SDS011;52677;50.898;10.854;2023-03-01T09:22:26;33.03;;;15.65;;
65896;SDS011;52677;50.898;10.854;2023-03-01T09:24:26;31.92;;;17.42;;
65896;SDS011;52677;50.898;10.854;2023-03-01T09:26:27;28.77;;;17.02;;
65896;SDS011;52677;50.898;10.854;2023-03-01T09:28:27;34.72;;;17.48;;
65896;SDS011;52677;50.898;10.854;2023-03-01T09:30:27;30.33;;;17.27;;
65896;SDS011;52677;50.898;10.854;2023-03-01T09:32:29;32.42;;;17.00;;
65896;SDS011;52677;50.898;10.854;2023-03-01T09:34:31;28.95;;;15.57;;
65896;SDS011;52677;50.898;10.854;2023-03-01T09:36:31;34.40;;;16.90;;
65896;SDS011;52677;50.898;10.854;2023-03-01T09:38:31;36.35;;;17.52;;
65896;SDS011;52677;50.898;10.854;2023-03-01T09:40:32;28.65;;;15.55;;
65896;SDS011;52677;50.898;10.854;2023-03-01T09:42:34;29.90;;;15.18;;
65896;SDS011;52677;50.898;10.854;2023-03-01T09:44:37;29.80;;;15.38;;
65896;SDS011;52677;50.898;10.854;2023-03-01T09:46:46;28.02;;;15.07;;
65896;SDS011;52677;50.898;10.854;2023-03-01T09:51:03;28.23;;;14.75;;
65896;SDS011;52677;50.898;10.854;2023-03-01T09:56:05;26.98;;;13.68;;
65896;SDS011;52677;50.898;10.854;2023-03-01T10:02:57;24.60;;;13.18;;
65896;SDS011;52677;50.898;10.854;2023-03-01T10:09:40;30.17;;;14.13;;
65896;SDS011;52677;50.898;10.854;2023-03-01T10:11:45;26.92;;;15.52;;
65896;SDS011;52677;50.898;10.854;2023-03-01T10:14:15;38.63;;;18.65;;
65896;SDS011;52677;50.898;10.854;2023-03-01T10:19:02;29.10;;;14.88;;
65896;SDS011;52677;50.898;10.854;2023-03-01T10:21:09;29.17;;;15.23;;
65896;SDS011;52677;50.898;10.854;2023-03-01T10:23:15;26.38;;;14.40;;
65896;SDS011;52677;50.898;10.854;2023-03-01T10:25:17;27.80;;;14.90;;
65896;SDS011;52677;50.898;10.854;2023-03-01T10:27:25;31.33;;;14.57;;
65896;SDS011;52677;50.898;10.854;2023-03-01T10:30:18;26.33;;;13.98;;
65896;SDS011;52677;50.898;10.854;2023-03-01T10:32:13;29.42;;;13.80;;
65896;SDS011;52677;50.898;10.854;2023-03-01T10:34:14;33.42;;;13.68;;
65896;SDS011;52677;50.898;10.854;2023-03-01T10:36:20;22.05;;;11.15;;
65896;SDS011;52677;50.898;10.854;2023-03-01T10:38:21;22.35;;;11.57;;
65896;SDS011;52677;50.898;10.854;2023-03-01T10:40:22;22.02;;;12.60;;
65896;SDS011;52677;50.898;10.854;2023-03-01T10:42:25;20.20;;;10.55;;
65896;SDS011;52677;50.898;10.854;2023-03-01T10:44:49;25.23;;;11.63;;
65896;SDS011;52677;50.898;10.854;2023-03-01T10:46:52;17.35;;;10.40;;
65896;SDS011;52677;50.898;10.854;2023-03-01T10:49:16;20.20;;;11.18;;
65896;SDS011;52677;50.898;10.854;2023-03-01T10:51:18;22.13;;;11.75;;
65896;SDS011;52677;50.898;10.854;2023-03-01T10:53:27;23.42;;;11.90;;
65896;SDS011;52677;50.898;10.854;2023-03-01T10:57:37;20.50;;;11.63;;
65896;SDS011;52677;50.898;10.854;2023-03-01T10:59:40;20.65;;;11.18;;
65896;SDS011;52677;50.898;10.854;2023-03-01T11:01:40;20.85;;;11.73;;
65896;SDS011;52677;50.898;10.854;2023-03-01T11:03:41;17.65;;;10.88;;
65896;SDS011;52677;50.898;10.854;2023-03-01T11:08:11;19.33;;;10.50;;
65896;SDS011;52677;50.898;10.854;2023-03-01T11:10:11;16.48;;;9.48;;
65896;SDS011;52677;50.898;10.854;2023-03-01T11:12:16;20.05;;;10.98;;
65896;SDS011;52677;50.898;10.854;2023-03-01T11:14:20;20.10;;;11.18;;
65896;SDS011;52677;50.898;10.854;2023-03-01T11:16:32;18.13;;;9.98;;
65896;SDS011;52677;50.898;10.854;2023-03-01T11:18:35;19.38;;;10.18;;
65896;SDS011;52677;50.898;10.854;2023-03-01T11:20:36;20.60;;;11.27;;
65896;SDS011;52677;50.898;10.854;2023-03-01T11:22:46;21.63;;;11.63;;
65896;SDS011;52677;50.898;10.854;2023-03-01T11:24:51;25.05;;;11.90;;
65896;SDS011;52677;50.898;10.854;2023-03-01T11:26:54;20.13;;;11.82;;
65896;SDS011;52677;50.898;10.854;2023-03-01T11:28:55;23.85;;;12.20;;
65896;SDS011;52677;50.898;10.854;2023-03-01T11:31:00;20.25;;;11.25;;
65896;SDS011;52677;50.898;10.854;2023-03-01T11:35:35;24.15;;;11.88;;
65896;SDS011;52677;50.898;10.854;2023-03-01T11:37:44;20.27;;;11.88;;
65896;SDS011;52677;50.898;10.854;2023-03-01T11:40:03;18.85;;;11.20;;
65896;SDS011;52677;50.898;10.854;2023-03-01T11:44:16;18.77;;;11.50;;
65896;SDS011;52677;50.898;10.854;2023-03-01T11:50:59;21.08;;;10.55;;
65896;SDS011;52677;50.898;10.854;2023-03-01T11:53:11;18.70;;;11.40;;
65896;SDS011;52677;50.898;10.854;2023-03-01T11:58:04;26.52;;;13.68;;
65896;SDS011;52677;50.898;10.854;2023-03-01T12:07:20;23.25;;;11.48;;
65896;SDS011;52677;50.898;10.854;2023-03-01T12:28:12;23.15;;;11.90;;
65896;SDS011;52677;50.898;10.854;2023-03-01T12:37:39;19.48;;;11.90;;
65896;SDS011;52677;50.898;10.854;2023-03-01T12:39:51;21.48;;;10.88;;
65896;SDS011;52677;50.898;10.854;2023-03-01T12:42:19;23.67;;;12.32;;
65896;SDS011;52677;50.898;10.854;2023-03-01T12:49:08;24.48;;;11.93;;
65896;SDS011;52677;50.898;10.854;2023-03-01T12:51:17;18.95;;;11.20;;
65896;SDS011;52677;50.898;10.854;2023-03-01T12:53:26;21.02;;;11.65;;
65896;SDS011;52677;50.898;10.854;2023-03-01T12:55:34;19.05;;;10.88;;
65896;SDS011;52677;50.898;10.854;2023-03-01T12:57:39;21.60;;;10.85;;
65896;SDS011;52677;50.898;10.854;2023-03-01T13:02:13;22.00;;;11.25;;
65896;SDS011;52677;50.898;10.854;2023-03-01T13:09:06;22.95;;;11.85;;
65896;SDS011;52677;50.898;10.854;2023-03-01T13:11:28;23.35;;;10.82;;
65896;SDS011;52677;50.898;10.854;2023-03-01T13:13:29;20.77;;;12.05;;
65896;SDS011;52677;50.898;10.854;2023-03-01T13:15:31;23.25;;;12.05;;
65896;SDS011;52677;50.898;10.854;2023-03-01T13:17:39;19.75;;;11.38;;